Akron Fulton International Airport
KAKR : now visible

Airfield :











YOU CAN JOIN US ON...

 
LOGIN :

Register | Disclaimer

   EN    FR    IT 

 









Legend :    VFR   Marginal VFR   IFR   Intensive IFR   Very Intensive IFR
Visi :
Ceiling :
>= 8 km
>= 3000ft
5 to 8 km
1000 to 3000 ft
1500m to 5 km
500 to 1000 ft
800 to 1500m
200 to 500 ft
< 800m
< 200 ft
Symbols :   Thunderstorms  Fog  Heavy snow  Heavy precipitations  Wind > 20 kt






- Airport Elevation : 1067 ft


KAKR - Akron Fulton International

CURRENT METAR :
  • 061454Z AUTO 24008KT 10SM OVC095 07/M01 A2998 RMK AO2 SLP158 T00721011 53010 $

EXPIRED METARs :
  • 061354Z AUTO 23011KT 10SM OVC090 07/M02 A2995 RMK AO2 SLP150 T00671017 $
  • 061254Z AUTO 22012KT 10SM OVC095 06/M02 A2994 RMK AO2 SLP146 T00611022

TAF N/A



MET'MAP, your aeronautical weather chart ! - Copyright ORBIFLY December 2007 - Disclaimer

ORBIFLY MET'MAP TEAM :

Programming & Development : Alexandra Zaïnal
Concept & original design : Baudouin d'Aumeries
Assistance for programming : Marc-Olivier Méhu
Technical & hardware support : Manuel Goepfert

Contact : metmap@orbifly.com




SOURCES & CREDITS :

   NOAA       Earth
Advisory